createdAt,value
2017-05-13T00:00:13.748Z,0.00
2017-05-13T00:01:07.760Z,0.00
2017-05-13T00:02:07.747Z,0.00
2017-05-13T00:03:02.650Z,0.00
2017-05-13T00:04:02.192Z,0.00
2017-05-13T00:04:56.228Z,0.00
2017-05-13T00:05:57.121Z,0.00
2017-05-13T00:06:56.621Z,0.00
2017-05-13T00:07:51.523Z,0.00
2017-05-13T00:08:57.080Z,0.00
2017-05-13T00:09:52.633Z,0.00
2017-05-13T00:10:51.538Z,0.00
2017-05-13T00:11:45.492Z,0.00
2017-05-13T00:12:39.441Z,0.00
2017-05-13T00:13:34.797Z,0.00
2017-05-13T00:14:33.964Z,0.00
2017-05-13T00:15:28.906Z,0.00
2017-05-13T00:16:28.422Z,0.00
2017-05-13T00:17:28.362Z,0.00
2017-05-13T00:18:23.342Z,0.00
2017-05-13T00:19:17.900Z,0.00
2017-05-13T00:20:12.364Z,0.00
2017-05-13T00:21:06.922Z,0.00
2017-05-13T00:22:06.588Z,0.00
2017-05-13T00:23:00.388Z,0.00
2017-05-13T00:24:00.364Z,0.00
2017-05-13T00:25:00.351Z,0.00
2017-05-13T00:26:01.217Z,0.00
2017-05-13T00:26:54.882Z,0.00
2017-05-13T00:27:54.755Z,0.00
2017-05-13T00:28:49.695Z,0.00
2017-05-13T00:29:44.234Z,0.00
2017-05-13T00:30:43.761Z,0.00
2017-05-13T00:31:37.728Z,0.00
2017-05-13T00:32:32.684Z,0.00
2017-05-13T00:33:32.804Z,0.00
2017-05-13T00:34:26.095Z,0.00
2017-05-13T00:35:26.555Z,0.00
2017-05-13T00:36:21.071Z,0.00
2017-05-13T00:37:20.559Z,0.00
2017-05-13T00:38:20.498Z,0.00
2017-05-13T00:39:14.769Z,0.00
2017-05-13T00:40:08.458Z,0.00
2017-05-13T00:41:08.387Z,0.00
2017-05-13T00:41:57.412Z,0.00
2017-05-13T00:42:51.905Z,0.00
2017-05-13T00:43:51.395Z,0.00
2017-05-13T00:44:51.395Z,0.00
2017-05-13T00:45:46.311Z,0.00
2017-05-13T00:46:51.815Z,0.00
2017-05-13T00:47:45.819Z,0.00
2017-05-13T00:48:40.742Z,0.00
2017-05-13T00:49:40.314Z,0.00
2017-05-13T00:50:40.859Z,0.00
2017-05-13T00:51:46.168Z,0.00
2017-05-13T00:52:40.133Z,0.00
2017-05-13T00:53:40.110Z,0.00
2017-05-13T00:54:29.041Z,0.00
2017-05-13T00:55:28.729Z,0.00
2017-05-13T00:56:22.587Z,0.00
2017-05-13T00:57:23.489Z,0.00
2017-05-13T00:58:23.018Z,0.00
2017-05-13T00:59:23.004Z,0.00
2017-05-13T01:00:18.383Z,0.00
2017-05-13T01:01:12.938Z,0.00
2017-05-13T01:02:12.019Z,0.00
2017-05-13T01:03:12.053Z,0.00
2017-05-13T01:04:11.879Z,0.00
2017-05-13T01:05:13.342Z,0.00
2017-05-13T01:06:12.308Z,0.00
2017-05-13T01:07:07.339Z,0.00
2017-05-13T01:08:12.822Z,0.00
2017-05-13T01:09:06.830Z,0.00
2017-05-13T01:10:02.225Z,0.00
2017-05-13T01:11:01.261Z,0.00
2017-05-13T01:11:50.198Z,0.00
2017-05-13T01:12:49.704Z,0.00
2017-05-13T01:13:50.204Z,0.00
2017-05-13T01:14:49.741Z,0.00
2017-05-13T01:15:43.626Z,0.00
2017-05-13T01:16:38.598Z,0.00
2017-05-13T01:17:32.732Z,0.00
2017-05-13T01:18:27.093Z,0.00
2017-05-13T01:19:26.592Z,0.00
2017-05-13T01:20:22.136Z,0.00
2017-05-13T01:21:21.114Z,0.00
2017-05-13T01:22:10.012Z,0.00
2017-05-13T01:23:09.558Z,0.00
2017-05-13T01:24:09.502Z,0.00
2017-05-13T01:25:03.862Z,0.00
2017-05-13T01:26:03.399Z,0.00
2017-05-13T01:26:57.375Z,0.00
2017-05-13T01:27:57.378Z,0.00
2017-05-13T01:28:57.340Z,0.00
2017-05-13T01:29:51.271Z,0.00
2017-05-13T01:30:46.238Z,0.00
2017-05-13T01:31:51.795Z,0.00
2017-05-13T01:32:46.695Z,0.00
2017-05-13T01:33:41.203Z,0.00
2017-05-13T01:34:40.707Z,0.00
2017-05-13T01:35:35.703Z,0.00
2017-05-13T01:36:30.383Z,0.00
2017-05-13T01:37:35.730Z,0.00
2017-05-13T01:38:30.684Z,0.00
2017-05-13T01:39:25.218Z,0.00
2017-05-13T01:40:20.058Z,0.00
2017-05-13T01:41:14.270Z,0.00
2017-05-13T01:42:13.775Z,0.00
2017-05-13T01:43:08.709Z,0.00
2017-05-13T01:44:08.446Z,0.00
2017-05-13T01:45:08.638Z,0.00
2017-05-13T01:46:02.171Z,0.00
2017-05-13T01:46:56.094Z,0.00
2017-05-13T01:47:50.115Z,0.00
2017-05-13T01:48:44.043Z,0.00
2017-05-13T01:49:44.994Z,0.00
2017-05-13T01:50:50.610Z,0.00
2017-05-13T01:51:45.490Z,0.00
2017-05-13T01:52:40.021Z,0.00
2017-05-13T01:53:39.876Z,0.00
2017-05-13T01:54:34.503Z,0.00
2017-05-13T01:55:29.052Z,0.00
2017-05-13T01:56:28.481Z,0.00
2017-05-13T01:57:28.472Z,0.00
2017-05-13T01:58:23.404Z,0.00
2017-05-13T01:59:22.914Z,0.00
2017-05-13T02:00:23.335Z,0.00
2017-05-13T02:01:22.878Z,0.00
2017-05-13T02:02:11.813Z,0.00
2017-05-13T02:03:11.317Z,0.00
2017-05-13T02:04:11.351Z,0.00
2017-05-13T02:05:06.342Z,0.00
2017-05-13T02:06:05.783Z,0.00
2017-05-13T02:06:59.683Z,0.00
2017-05-13T02:07:54.718Z,0.00
2017-05-13T02:08:54.195Z,0.00
2017-05-13T02:09:49.155Z,0.00
2017-05-13T02:10:37.706Z,0.00
2017-05-13T02:11:25.243Z,0.00
2017-05-13T02:12:08.216Z,0.00
2017-05-13T02:13:07.717Z,0.00
2017-05-13T02:14:07.693Z,0.00
2017-05-13T02:15:02.161Z,0.00
2017-05-13T02:15:50.614Z,0.00
2017-05-13T02:16:38.098Z,0.00
2017-05-13T02:17:21.067Z,0.00
2017-05-13T02:18:09.589Z,0.00
2017-05-13T02:18:57.121Z,0.00
2017-05-13T02:19:40.146Z,0.00
2017-05-13T02:20:27.980Z,0.00
2017-05-13T02:21:10.675Z,0.00
2017-05-13T02:21:58.057Z,0.00
2017-05-13T02:22:47.123Z,0.00
2017-05-13T02:23:41.621Z,0.00
2017-05-13T02:24:30.144Z,0.00
2017-05-13T02:25:24.776Z,0.00
2017-05-13T02:26:18.237Z,0.00
2017-05-13T02:27:01.456Z,0.00
2017-05-13T02:28:00.653Z,0.00
2017-05-13T02:28:54.648Z,0.00
2017-05-13T02:29:42.605Z,0.00
2017-05-13T02:30:36.571Z,0.00
2017-05-13T02:31:25.519Z,0.00
2017-05-13T02:32:14.056Z,0.00
2017-05-13T02:33:07.548Z,0.00
2017-05-13T02:33:55.786Z,0.00
2017-05-13T02:34:49.487Z,0.00
2017-05-13T02:35:32.767Z,0.00
2017-05-13T02:36:21.025Z,0.00
2017-05-13T02:37:08.620Z,0.00
2017-05-13T02:37:57.459Z,0.00
2017-05-13T02:38:45.983Z,0.00
2017-05-13T02:39:33.714Z,0.00
2017-05-13T02:40:16.747Z,0.00
2017-05-13T02:41:09.990Z,0.00
2017-05-13T02:41:57.964Z,0.00
2017-05-13T02:42:46.042Z,0.00
2017-05-13T02:43:28.910Z,0.00
2017-05-13T02:44:23.470Z,0.00
2017-05-13T02:45:10.980Z,0.00
2017-05-13T02:45:53.937Z,0.00
2017-05-13T02:46:41.764Z,0.00
2017-05-13T02:47:35.416Z,0.00
2017-05-13T02:48:23.475Z,0.00
2017-05-13T02:49:11.353Z,0.00
2017-05-13T02:49:59.326Z,0.00
2017-05-13T02:50:43.050Z,0.00
2017-05-13T02:51:29.828Z,0.00
2017-05-13T02:52:12.764Z,0.00
2017-05-13T02:53:00.320Z,0.00
2017-05-13T02:53:49.367Z,0.00
2017-05-13T02:54:43.795Z,0.00
2017-05-13T02:55:31.340Z,0.00
2017-05-13T02:56:19.321Z,0.00
2017-05-13T02:57:07.228Z,0.00
2017-05-13T02:57:56.230Z,0.00
2017-05-13T02:58:44.777Z,0.00
2017-05-13T02:59:32.333Z,0.00
2017-05-13T03:00:21.377Z,0.00
2017-05-13T03:01:09.729Z,0.00
2017-05-13T03:01:57.249Z,0.00
2017-05-13T03:02:46.182Z,0.00
2017-05-13T03:03:33.783Z,0.00
2017-05-13T03:04:16.722Z,0.00
2017-05-13T03:05:04.226Z,0.00
2017-05-13T03:05:52.616Z,0.00
2017-05-13T03:06:40.162Z,0.00
2017-05-13T03:07:29.167Z,0.00
2017-05-13T03:08:16.644Z,0.00
2017-05-13T03:09:04.661Z,0.00
2017-05-13T03:09:52.989Z,0.00
2017-05-13T03:10:40.652Z,0.00
2017-05-13T03:11:23.558Z,0.00
2017-05-13T03:12:12.067Z,0.00
2017-05-13T03:12:59.602Z,0.00
2017-05-13T03:13:47.555Z,0.00
2017-05-13T03:14:35.504Z,0.00
2017-05-13T03:15:24.491Z,0.00
2017-05-13T03:16:12.046Z,0.00
2017-05-13T03:16:54.971Z,0.00
2017-05-13T03:17:42.477Z,0.00
2017-05-13T03:18:30.523Z,0.00
2017-05-13T03:19:13.468Z,0.00
2017-05-13T03:20:06.961Z,0.00
2017-05-13T03:20:55.940Z,0.00
2017-05-13T03:21:49.516Z,0.00
2017-05-13T03:22:43.433Z,0.00
2017-05-13T03:23:32.385Z,0.00
2017-05-13T03:24:25.917Z,0.00
2017-05-13T03:25:19.895Z,0.00
2017-05-13T03:26:13.805Z,0.00
2017-05-13T03:27:07.786Z,0.00
2017-05-13T03:28:01.738Z,0.00
2017-05-13T03:28:56.750Z,0.00
2017-05-13T03:29:51.183Z,0.00
2017-05-13T03:30:45.761Z,0.00
2017-05-13T03:31:39.266Z,0.00
2017-05-13T03:32:33.211Z,0.00
2017-05-13T03:33:22.181Z,0.00
2017-05-13T03:34:15.676Z,0.00
2017-05-13T03:35:09.716Z,0.00
2017-05-13T03:35:57.620Z,0.00
2017-05-13T03:36:45.579Z,0.00
2017-05-13T03:37:34.585Z,0.00
2017-05-13T03:38:29.107Z,0.00
2017-05-13T03:39:28.616Z,0.00
2017-05-13T03:40:17.561Z,0.00
2017-05-13T03:41:12.081Z,0.00
2017-05-13T03:42:05.606Z,0.00
2017-05-13T03:42:59.588Z,0.00
2017-05-13T03:43:59.513Z,0.00
2017-05-13T03:44:47.510Z,0.00
2017-05-13T03:45:48.415Z,0.01
2017-05-13T03:46:42.976Z,0.01
2017-05-13T03:47:37.478Z,0.01
2017-05-13T03:48:32.006Z,0.01
2017-05-13T03:49:25.513Z,0.01
2017-05-13T03:50:13.550Z,0.01
2017-05-13T03:51:07.463Z,0.01
2017-05-13T03:51:56.784Z,0.01
2017-05-13T03:52:44.013Z,0.01
2017-05-13T03:53:31.893Z,0.01
2017-05-13T03:54:21.117Z,0.01
2017-05-13T03:55:08.619Z,0.01
2017-05-13T03:55:56.554Z,0.01
2017-05-13T03:56:44.292Z,0.01
2017-05-13T03:57:27.926Z,0.01
2017-05-13T03:58:14.771Z,0.01
2017-05-13T03:58:57.773Z,0.01
2017-05-13T03:59:45.332Z,0.01
2017-05-13T04:00:34.299Z,0.01
2017-05-13T04:01:22.083Z,0.01
2017-05-13T04:02:09.817Z,0.01
2017-05-13T04:02:57.777Z,0.02
2017-05-13T04:03:40.695Z,0.02
2017-05-13T04:04:28.267Z,0.02
2017-05-13T04:05:17.580Z,0.02
2017-05-13T04:06:04.746Z,0.02
2017-05-13T04:06:47.672Z,0.02
2017-05-13T04:07:41.157Z,0.02
2017-05-13T04:08:30.171Z,0.02
2017-05-13T04:09:17.719Z,0.02
2017-05-13T04:10:05.615Z,0.02
2017-05-13T04:10:48.578Z,0.02
2017-05-13T04:11:36.169Z,0.02
2017-05-13T04:12:19.098Z,0.03
2017-05-13T04:13:06.651Z,0.03
2017-05-13T04:13:55.600Z,0.03
2017-05-13T04:14:43.200Z,0.03
2017-05-13T04:15:31.079Z,0.03
2017-05-13T04:16:19.069Z,0.03
2017-05-13T04:17:14.085Z,0.04
2017-05-13T04:18:03.152Z,0.04
2017-05-13T04:18:56.107Z,0.04
2017-05-13T04:19:51.046Z,0.04
2017-05-13T04:20:38.610Z,0.04
2017-05-13T04:21:22.081Z,0.05
2017-05-13T04:22:09.111Z,0.05
2017-05-13T04:22:52.076Z,0.05
2017-05-13T04:23:57.562Z,0.05
2017-05-13T04:24:40.478Z,0.05
2017-05-13T04:25:29.095Z,0.05
2017-05-13T04:26:16.597Z,0.05
2017-05-13T04:26:59.585Z,0.05
2017-05-13T04:27:47.103Z,0.05
2017-05-13T04:28:35.341Z,0.05
2017-05-13T04:29:23.989Z,0.05
2017-05-13T04:30:11.521Z,0.05
2017-05-13T04:30:59.501Z,0.05
2017-05-13T04:31:47.445Z,0.05
2017-05-13T04:32:36.391Z,0.05
2017-05-13T04:33:23.987Z,0.05
2017-05-13T04:34:18.002Z,0.05
2017-05-13T04:35:01.486Z,0.05
2017-05-13T04:35:54.440Z,0.05
2017-05-13T04:36:37.378Z,0.05
2017-05-13T04:37:25.124Z,0.05
2017-05-13T04:38:25.233Z,0.05
2017-05-13T04:39:18.807Z,0.05
2017-05-13T04:40:13.736Z,0.06
2017-05-13T04:41:08.301Z,0.06
2017-05-13T04:42:07.832Z,0.06
2017-05-13T04:43:09.395Z,0.06
2017-05-13T04:44:08.263Z,0.06
2017-05-13T04:45:02.928Z,0.06
2017-05-13T04:46:02.213Z,0.06
2017-05-13T04:46:57.141Z,0.06
2017-05-13T04:47:56.943Z,0.06
2017-05-13T04:48:50.659Z,0.07
2017-05-13T04:49:51.547Z,0.07
2017-05-13T04:50:45.262Z,0.07
2017-05-13T04:51:45.096Z,0.07
2017-05-13T04:52:39.056Z,0.07
2017-05-13T04:53:40.007Z,0.07
2017-05-13T04:54:39.465Z,0.07
2017-05-13T04:55:33.706Z,0.08
2017-05-13T04:56:27.488Z,0.08
2017-05-13T04:57:21.395Z,0.08
2017-05-13T04:58:15.357Z,0.09
2017-05-13T04:59:09.286Z,0.09
2017-05-13T05:00:03.679Z,0.09
2017-05-13T05:01:03.202Z,0.10
2017-05-13T05:01:51.207Z,0.10
2017-05-13T05:02:40.157Z,0.10
2017-05-13T05:03:27.692Z,0.10
2017-05-13T05:04:10.695Z,0.09
2017-05-13T05:04:58.579Z,0.09
2017-05-13T05:05:46.224Z,0.09
2017-05-13T05:06:40.070Z,0.09
2017-05-13T05:07:40.312Z,0.08
2017-05-13T05:08:35.070Z,0.08
2017-05-13T05:09:34.540Z,0.08
2017-05-13T05:10:28.721Z,0.07
2017-05-13T05:11:22.624Z,0.07
2017-05-13T05:12:16.742Z,0.06
2017-05-13T05:13:16.448Z,0.06
2017-05-13T05:14:10.332Z,0.06
2017-05-13T05:15:10.511Z,0.06
2017-05-13T05:16:04.504Z,0.06
2017-05-13T05:17:04.489Z,0.06
2017-05-13T05:17:59.456Z,0.06
2017-05-13T05:18:54.033Z,0.06
2017-05-13T05:19:53.259Z,0.06
2017-05-13T05:20:47.197Z,0.06
2017-05-13T05:21:47.204Z,0.07
2017-05-13T05:22:41.217Z,0.07
2017-05-13T05:23:47.099Z,0.07
2017-05-13T05:24:42.167Z,0.07
2017-05-13T05:25:42.025Z,0.07
2017-05-13T05:26:41.909Z,0.07
2017-05-13T05:27:35.459Z,0.07
2017-05-13T05:28:29.472Z,0.07
2017-05-13T05:29:25.031Z,0.07
2017-05-13T05:30:23.904Z,0.07
2017-05-13T05:31:17.899Z,0.07
2017-05-13T05:32:17.898Z,0.08
2017-05-13T05:33:12.822Z,0.08
2017-05-13T05:34:18.300Z,0.08
2017-05-13T05:35:12.305Z,0.09
2017-05-13T05:36:12.285Z,0.09
2017-05-13T05:37:01.474Z,0.09
2017-05-13T05:38:00.695Z,0.09
2017-05-13T05:39:01.683Z,0.09
2017-05-13T05:39:56.221Z,0.08
2017-05-13T05:40:50.758Z,0.08
2017-05-13T05:41:45.705Z,0.08
2017-05-13T05:42:45.032Z,0.08
2017-05-13T05:43:39.756Z,0.08
2017-05-13T05:44:39.276Z,0.09
2017-05-13T05:45:40.266Z,0.09
2017-05-13T05:46:35.388Z,0.09
2017-05-13T05:47:29.298Z,0.10
2017-05-13T05:48:23.791Z,0.10
2017-05-13T05:49:23.784Z,0.11
2017-05-13T05:50:17.295Z,0.11
2017-05-13T05:51:17.231Z,0.11
2017-05-13T05:52:12.218Z,0.11
2017-05-13T05:53:11.727Z,0.11
2017-05-13T05:54:07.208Z,0.10
2017-05-13T05:55:01.858Z,0.10
2017-05-13T05:56:00.736Z,0.10
2017-05-13T05:57:02.211Z,0.10
2017-05-13T05:57:56.179Z,0.10
2017-05-13T05:58:50.788Z,0.10
2017-05-13T05:59:45.421Z,0.10
2017-05-13T06:00:44.858Z,0.10
2017-05-13T06:01:39.833Z,0.10
2017-05-13T06:02:34.474Z,0.10
2017-05-13T06:03:28.787Z,0.10
2017-05-13T06:04:22.380Z,0.11
2017-05-13T06:05:16.596Z,0.11
2017-05-13T06:06:05.289Z,0.12
2017-05-13T06:06:53.787Z,0.13
2017-05-13T06:07:47.283Z,0.13
2017-05-13T06:08:47.309Z,0.14
2017-05-13T06:09:42.268Z,0.14
2017-05-13T06:10:29.946Z,0.15
2017-05-13T06:11:17.733Z,0.15
2017-05-13T06:12:05.892Z,0.15
2017-05-13T06:12:48.668Z,0.15
2017-05-13T06:13:36.383Z,0.15
2017-05-13T06:14:30.406Z,0.16
2017-05-13T06:15:18.227Z,0.16
2017-05-13T06:16:07.088Z,0.17
2017-05-13T06:17:02.015Z,0.17
2017-05-13T06:17:55.150Z,0.17
2017-05-13T06:18:49.097Z,0.17
2017-05-13T06:19:32.314Z,0.16
2017-05-13T06:20:27.002Z,0.16
2017-05-13T06:21:20.142Z,0.15
2017-05-13T06:22:03.298Z,0.15
2017-05-13T06:22:50.646Z,0.14
2017-05-13T06:23:39.892Z,0.14
2017-05-13T06:24:33.093Z,0.14
2017-05-13T06:25:33.513Z,0.13
2017-05-13T06:26:27.336Z,0.13
2017-05-13T06:27:22.273Z,0.13
2017-05-13T06:28:16.587Z,0.13
2017-05-13T06:29:11.089Z,0.13
2017-05-13T06:30:06.151Z,0.13
2017-05-13T06:31:05.927Z,0.13
2017-05-13T06:31:59.458Z,0.13
2017-05-13T06:32:59.030Z,0.13
2017-05-13T06:33:47.957Z,0.14
2017-05-13T06:34:42.577Z,0.14
2017-05-13T06:35:31.296Z,0.14
2017-05-13T06:36:19.591Z,0.14
2017-05-13T06:37:07.152Z,0.14
2017-05-13T06:37:50.101Z,0.14
2017-05-13T06:38:38.670Z,0.14
2017-05-13T06:39:26.341Z,0.15
2017-05-13T06:40:20.222Z,0.15
2017-05-13T06:41:15.331Z,0.15
2017-05-13T06:42:10.046Z,0.15
2017-05-13T06:43:03.565Z,0.15
2017-05-13T06:43:57.101Z,0.16
2017-05-13T06:44:51.579Z,0.16
2017-05-13T06:45:40.533Z,0.16
2017-05-13T06:46:33.549Z,0.16
2017-05-13T06:47:21.986Z,0.16
2017-05-13T06:48:15.643Z,0.16
2017-05-13T06:49:04.795Z,0.16
2017-05-13T06:49:58.297Z,0.16
2017-05-13T06:50:47.537Z,0.16
2017-05-13T06:51:47.534Z,0.15
2017-05-13T06:52:36.205Z,0.15
2017-05-13T06:53:29.963Z,0.15
2017-05-13T06:54:30.067Z,0.16
2017-05-13T06:55:29.848Z,0.16
2017-05-13T06:56:30.474Z,0.16
2017-05-13T06:57:19.509Z,0.16
2017-05-13T06:58:13.571Z,0.15
2017-05-13T06:59:02.050Z,0.15
2017-05-13T07:00:02.230Z,0.14
2017-05-13T07:00:55.888Z,0.13
2017-05-13T07:01:55.526Z,0.13
2017-05-13T07:02:44.812Z,0.14
2017-05-13T07:03:33.455Z,0.14
2017-05-13T07:04:27.549Z,0.15
2017-05-13T07:05:27.086Z,0.16
2017-05-13T07:06:16.079Z,0.16
2017-05-13T07:07:16.551Z,0.17
2017-05-13T07:08:10.051Z,0.17
2017-05-13T07:08:59.046Z,0.18
2017-05-13T07:09:53.154Z,0.18
2017-05-13T07:10:40.595Z,0.19
2017-05-13T07:11:35.492Z,0.19
2017-05-13T07:12:35.066Z,0.19
2017-05-13T07:13:28.981Z,0.19
2017-05-13T07:14:29.949Z,0.19
2017-05-13T07:15:24.534Z,0.19
2017-05-13T07:16:18.184Z,0.20
2017-05-13T07:17:07.195Z,0.20
2017-05-13T07:18:00.513Z,0.21
2017-05-13T07:18:48.696Z,0.21
2017-05-13T07:19:38.486Z,0.21
2017-05-13T07:20:26.025Z,0.21
2017-05-13T07:21:19.513Z,0.20
2017-05-13T07:22:13.565Z,0.20
2017-05-13T07:23:07.484Z,0.20
2017-05-13T07:24:02.432Z,0.20
2017-05-13T07:24:55.947Z,0.20
2017-05-13T07:25:39.533Z,0.20
2017-05-13T07:26:27.481Z,0.20
2017-05-13T07:27:21.991Z,0.19
2017-05-13T07:28:21.508Z,0.19
2017-05-13T07:29:10.494Z,0.18
2017-05-13T07:30:05.810Z,0.18
2017-05-13T07:30:58.603Z,0.16
2017-05-13T07:31:41.515Z,0.16
2017-05-13T07:32:41.063Z,0.15
2017-05-13T07:33:35.239Z,0.14
2017-05-13T07:34:29.023Z,0.13
2017-05-13T07:35:23.010Z,0.13
2017-05-13T07:36:23.307Z,0.12
2017-05-13T07:37:16.908Z,0.12
2017-05-13T07:38:12.090Z,0.13
2017-05-13T07:39:11.417Z,0.13
2017-05-13T07:40:06.157Z,0.13
2017-05-13T07:41:00.321Z,0.15
2017-05-13T07:41:53.834Z,0.16
2017-05-13T07:42:42.394Z,0.16
2017-05-13T07:43:30.835Z,0.17
2017-05-13T07:44:24.340Z,0.18
2017-05-13T07:45:07.748Z,0.18
2017-05-13T07:45:54.809Z,0.19
2017-05-13T07:46:48.780Z,0.19
2017-05-13T07:47:37.115Z,0.19
2017-05-13T07:48:19.741Z,0.19
2017-05-13T07:49:13.191Z,0.18
2017-05-13T07:50:01.480Z,0.17
2017-05-13T07:50:44.226Z,0.16
2017-05-13T07:51:38.929Z,0.15
2017-05-13T07:52:26.286Z,0.14
2017-05-13T07:53:20.608Z,0.14
2017-05-13T07:54:09.166Z,0.14
2017-05-13T07:55:08.917Z,0.14
2017-05-13T07:56:08.698Z,0.14
2017-05-13T07:57:02.644Z,0.15
2017-05-13T07:57:57.010Z,0.15
2017-05-13T07:58:56.582Z,0.16
2017-05-13T07:59:51.002Z,0.17
2017-05-13T08:00:50.738Z,0.18
2017-05-13T08:01:44.513Z,0.19
2017-05-13T08:02:38.516Z,0.20
2017-05-13T08:03:27.496Z,0.21
2017-05-13T08:04:21.348Z,0.22
2017-05-13T08:05:09.542Z,0.23
2017-05-13T08:05:57.887Z,0.23
2017-05-13T08:06:46.766Z,0.24
2017-05-13T08:07:35.336Z,0.24
2017-05-13T08:08:23.493Z,0.24
2017-05-13T08:09:23.531Z,0.23
2017-05-13T08:10:11.975Z,0.23
2017-05-13T08:11:06.844Z,0.22
2017-05-13T08:12:06.068Z,0.22
2017-05-13T08:13:01.024Z,0.22
2017-05-13T08:13:55.584Z,0.22
2017-05-13T08:14:49.072Z,0.22
2017-05-13T08:15:49.079Z,0.21
2017-05-13T08:16:38.029Z,0.21
2017-05-13T08:17:32.916Z,0.21
2017-05-13T08:18:21.103Z,0.22
2017-05-13T08:19:14.631Z,0.21
2017-05-13T08:20:09.881Z,0.21
2017-05-13T08:21:09.127Z,0.21
2017-05-13T08:22:03.121Z,0.21
2017-05-13T08:23:03.052Z,0.21
2017-05-13T08:23:58.305Z,0.21
2017-05-13T08:24:51.731Z,0.21
2017-05-13T08:25:40.649Z,0.21
2017-05-13T08:26:40.077Z,0.21
2017-05-13T08:27:28.024Z,0.21
2017-05-13T08:28:22.000Z,0.21
2017-05-13T08:29:15.980Z,0.21
2017-05-13T08:30:15.893Z,0.22
2017-05-13T08:31:10.235Z,0.22
2017-05-13T08:32:04.859Z,0.23
2017-05-13T08:32:52.384Z,0.24
2017-05-13T08:33:46.398Z,0.25
2017-05-13T08:34:29.336Z,0.27
2017-05-13T08:35:23.929Z,0.28
2017-05-13T08:36:23.379Z,0.30
2017-05-13T08:37:17.697Z,0.31
2017-05-13T08:38:12.629Z,0.32
2017-05-13T08:39:00.875Z,0.33
2017-05-13T08:39:55.966Z,0.33
2017-05-13T08:40:49.162Z,0.34
2017-05-13T08:41:43.978Z,0.33
2017-05-13T08:42:43.407Z,0.33
2017-05-13T08:43:37.415Z,0.32
2017-05-13T08:44:26.722Z,0.32
2017-05-13T08:45:15.087Z,0.33
2017-05-13T08:46:14.786Z,0.34
2017-05-13T08:47:08.769Z,0.38
2017-05-13T08:47:56.792Z,0.37
2017-05-13T08:48:44.853Z,0.34
2017-05-13T08:49:38.967Z,0.33
2017-05-13T08:50:27.713Z,0.32
2017-05-13T08:51:21.066Z,0.31
2017-05-13T08:52:09.302Z,0.31
2017-05-13T08:52:58.287Z,0.30
2017-05-13T08:53:57.861Z,0.30
2017-05-13T08:54:51.755Z,0.30
2017-05-13T08:55:40.756Z,0.29
2017-05-13T08:56:35.310Z,0.29
2017-05-13T08:57:22.828Z,0.29
2017-05-13T08:58:11.578Z,0.29
2017-05-13T08:59:05.362Z,0.30
2017-05-13T09:00:00.357Z,0.31
2017-05-13T09:00:48.398Z,0.32
2017-05-13T09:01:42.872Z,0.33
2017-05-13T09:02:37.514Z,0.34
2017-05-13T09:03:32.544Z,0.35
2017-05-13T09:04:20.499Z,0.36
2017-05-13T09:05:15.180Z,0.37
2017-05-13T09:06:02.595Z,0.37
2017-05-13T09:06:51.077Z,0.36
2017-05-13T09:07:45.073Z,0.36
2017-05-13T09:08:32.969Z,0.36
2017-05-13T09:09:21.112Z,0.36
2017-05-13T09:10:09.200Z,0.37
2017-05-13T09:10:58.061Z,0.38
2017-05-13T09:11:45.415Z,0.39
2017-05-13T09:12:39.282Z,0.40
2017-05-13T09:13:27.449Z,0.42
2017-05-13T09:14:15.407Z,0.43
2017-05-13T09:15:09.594Z,0.45
2017-05-13T09:16:03.495Z,0.47
2017-05-13T09:16:57.405Z,0.51
2017-05-13T09:17:45.373Z,0.49
2017-05-13T09:18:45.365Z,0.50
2017-05-13T09:19:39.296Z,0.48
2017-05-13T09:20:33.290Z,0.50
2017-05-13T09:21:27.280Z,0.58
2017-05-13T09:22:16.253Z,0.58
2017-05-13T09:23:09.783Z,0.71
2017-05-13T09:24:03.740Z,0.65
2017-05-13T09:24:52.749Z,0.60
2017-05-13T09:25:40.231Z,0.59
2017-05-13T09:26:29.215Z,0.59
2017-05-13T09:27:22.773Z,0.63
2017-05-13T09:28:22.742Z,0.59
2017-05-13T09:29:05.648Z,0.64
2017-05-13T09:30:00.214Z,0.55
2017-05-13T09:31:00.751Z,0.61
2017-05-13T09:31:49.381Z,0.46
2017-05-13T09:32:42.829Z,0.66
2017-05-13T09:33:36.846Z,0.95
2017-05-13T09:34:25.817Z,0.77
2017-05-13T09:35:25.355Z,0.71
2017-05-13T09:36:25.396Z,0.76
2017-05-13T09:37:13.323Z,1.08
2017-05-13T09:38:01.321Z,0.73
2017-05-13T09:38:49.306Z,0.57
2017-05-13T09:39:37.262Z,0.54
2017-05-13T09:40:32.255Z,1.21
2017-05-13T09:41:31.812Z,0.87
2017-05-13T09:42:25.798Z,0.63
2017-05-13T09:43:19.736Z,0.40
2017-05-13T09:44:08.710Z,0.37
2017-05-13T09:44:57.249Z,0.45
2017-05-13T09:45:51.805Z,0.36
2017-05-13T09:46:45.353Z,0.36
2017-05-13T09:47:46.417Z,0.38
2017-05-13T09:48:39.837Z,0.39
2017-05-13T09:49:33.856Z,0.38
2017-05-13T09:50:21.820Z,0.38
2017-05-13T09:51:21.792Z,0.40
2017-05-13T09:52:10.766Z,0.44
2017-05-13T09:53:04.359Z,0.43
2017-05-13T09:53:53.233Z,0.41
2017-05-13T09:54:41.824Z,0.42
2017-05-13T09:55:35.368Z,0.49
2017-05-13T09:56:30.324Z,0.63
2017-05-13T09:57:23.908Z,0.63
2017-05-13T09:58:12.896Z,0.51
2017-05-13T09:59:00.427Z,0.64
2017-05-13T09:59:55.396Z,0.76
2017-05-13T10:00:42.973Z,0.94
2017-05-13T10:01:31.970Z,0.54
2017-05-13T10:02:31.471Z,0.62
2017-05-13T10:03:20.451Z,0.43
2017-05-13T10:04:19.946Z,0.34
2017-05-13T10:05:09.042Z,0.30
2017-05-13T10:06:02.541Z,0.27
2017-05-13T10:06:51.538Z,0.25
2017-05-13T10:07:45.105Z,0.23
2017-05-13T10:08:33.999Z,0.23
2017-05-13T10:09:21.580Z,0.21
2017-05-13T10:10:15.509Z,0.20
2017-05-13T10:11:15.537Z,0.18
2017-05-13T10:12:10.490Z,0.18
2017-05-13T10:13:04.058Z,0.18
2017-05-13T10:13:58.059Z,0.19
2017-05-13T10:14:57.935Z,0.23
2017-05-13T10:15:46.961Z,0.25
2017-05-13T10:16:40.498Z,0.25
2017-05-13T10:17:23.483Z,0.25
2017-05-13T10:18:11.006Z,0.25
2017-05-13T10:19:00.066Z,0.24
2017-05-13T10:19:53.558Z,0.23
2017-05-13T10:20:42.493Z,0.22
2017-05-13T10:21:30.042Z,0.22
2017-05-13T10:22:18.020Z,0.22
2017-05-13T10:23:05.970Z,0.22
2017-05-13T10:23:59.981Z,0.23
2017-05-13T10:24:48.881Z,0.25
2017-05-13T10:25:48.488Z,0.28
2017-05-13T10:26:42.436Z,0.96
2017-05-13T10:27:42.403Z,1.05
2017-05-13T10:28:36.436Z,1.09
2017-05-13T10:29:30.430Z,1.06
2017-05-13T10:30:24.355Z,1.04
2017-05-13T10:31:18.347Z,1.05
2017-05-13T10:32:12.298Z,0.97
2017-05-13T10:33:01.223Z,1.04
2017-05-13T10:33:54.809Z,0.31
2017-05-13T10:34:49.755Z,0.78
2017-05-13T10:35:37.359Z,1.01
2017-05-13T10:36:26.622Z,1.01
2017-05-13T10:37:25.878Z,0.94
2017-05-13T10:38:13.801Z,0.38
2017-05-13T10:39:13.831Z,0.27
2017-05-13T10:40:01.787Z,0.25
2017-05-13T10:40:56.777Z,0.24
2017-05-13T10:41:44.361Z,0.22
2017-05-13T10:42:39.243Z,0.22
2017-05-13T10:43:32.819Z,0.24
2017-05-13T10:44:26.813Z,0.25
2017-05-13T10:45:20.204Z,0.23
2017-05-13T10:46:14.768Z,0.21
2017-05-13T10:47:02.766Z,0.19
2017-05-13T10:47:51.736Z,0.18
2017-05-13T10:48:57.236Z,0.18
2017-05-13T10:49:45.253Z,0.18
2017-05-13T10:50:39.203Z,0.18
2017-05-13T10:51:28.050Z,0.19
2017-05-13T10:52:21.782Z,0.20
2017-05-13T10:53:16.787Z,0.96
2017-05-13T10:54:04.306Z,0.43
2017-05-13T10:54:52.291Z,0.96
2017-05-13T10:55:41.196Z,0.98
2017-05-13T10:56:29.793Z,0.98
2017-05-13T10:57:29.316Z,0.96
2017-05-13T10:58:17.247Z,0.95
2017-05-13T10:59:00.316Z,0.93
2017-05-13T10:59:53.828Z,0.95
2017-05-13T11:00:48.801Z,0.95
2017-05-13T11:01:42.314Z,0.96
2017-05-13T11:02:42.297Z,0.95
2017-05-13T11:03:36.283Z,0.92
2017-05-13T11:04:24.303Z,0.24
2017-05-13T11:05:18.293Z,0.32
2017-05-13T11:06:01.246Z,0.97
2017-05-13T11:06:55.745Z,1.01
2017-05-13T11:07:50.476Z,1.00
2017-05-13T11:08:43.819Z,0.98
2017-05-13T11:09:38.758Z,1.00
2017-05-13T11:10:32.329Z,1.00
2017-05-13T11:11:21.360Z,1.00
2017-05-13T11:12:15.851Z,1.01
2017-05-13T11:13:10.424Z,1.00
2017-05-13T11:13:58.968Z,0.31
2017-05-13T11:14:52.477Z,1.01
2017-05-13T11:15:46.457Z,1.03
2017-05-13T11:16:40.415Z,1.06
2017-05-13T11:17:34.399Z,1.12
2017-05-13T11:18:22.504Z,1.13
2017-05-13T11:19:22.392Z,1.10
2017-05-13T11:20:10.495Z,1.07
2017-05-13T11:20:53.360Z,0.64
2017-05-13T11:21:40.922Z,1.06
2017-05-13T11:22:34.895Z,1.02
2017-05-13T11:23:29.114Z,0.44
2017-05-13T11:24:17.861Z,0.39
2017-05-13T11:25:11.539Z,1.00
2017-05-13T11:26:05.487Z,1.07
2017-05-13T11:27:00.446Z,1.09
2017-05-13T11:27:53.933Z,1.06
2017-05-13T11:28:41.948Z,1.07
2017-05-13T11:29:35.963Z,0.94
2017-05-13T11:30:29.921Z,1.01
2017-05-13T11:31:18.885Z,0.93
2017-05-13T11:32:12.501Z,1.00
2017-05-13T11:33:06.533Z,1.03
2017-05-13T11:33:54.447Z,1.05
2017-05-13T11:34:49.409Z,1.01
2017-05-13T11:35:42.961Z,0.31
2017-05-13T11:36:30.967Z,0.32
2017-05-13T11:37:19.950Z,0.96
2017-05-13T11:38:13.505Z,0.47
2017-05-13T11:39:01.706Z,1.02
2017-05-13T11:39:56.485Z,0.95
2017-05-13T11:40:49.988Z,0.95
2017-05-13T11:41:39.026Z,0.73
2017-05-13T11:42:27.550Z,0.99
2017-05-13T11:43:15.129Z,0.97
2017-05-13T11:44:04.090Z,0.75